sensor_id;sensor_type;location;lat;lon;timestamp;P1;durP1;ratioP1;P2;durP2;ratioP2
8480;SDS011;4277;51.354;6.740;2022-07-29T00:01:22;3.85;;;1.30;;
8480;SDS011;4277;51.354;6.740;2022-07-29T00:03:48;4.63;;;1.35;;
8480;SDS011;4277;51.354;6.740;2022-07-29T00:06:14;4.82;;;1.50;;
8480;SDS011;4277;51.354;6.740;2022-07-29T00:08:40;2.05;;;1.25;;
8480;SDS011;4277;51.354;6.740;2022-07-29T00:11:05;3.92;;;1.40;;
8480;SDS011;4277;51.354;6.740;2022-07-29T00:13:31;4.53;;;1.10;;
8480;SDS011;4277;51.354;6.740;2022-07-29T00:15:56;3.08;;;1.23;;
8480;SDS011;4277;51.354;6.740;2022-07-29T00:18:22;4.45;;;1.17;;
8480;SDS011;4277;51.354;6.740;2022-07-29T00:20:47;3.50;;;1.10;;
8480;SDS011;4277;51.354;6.740;2022-07-29T00:23:13;8.15;;;1.40;;
8480;SDS011;4277;51.354;6.740;2022-07-29T00:25:39;2.92;;;1.25;;
8480;SDS011;4277;51.354;6.740;2022-07-29T00:28:04;6.75;;;1.67;;
8480;SDS011;4277;51.354;6.740;2022-07-29T00:30:30;3.72;;;1.45;;
8480;SDS011;4277;51.354;6.740;2022-07-29T00:32:56;3.20;;;1.30;;
8480;SDS011;4277;51.354;6.740;2022-07-29T00:35:21;5.38;;;1.45;;
8480;SDS011;4277;51.354;6.740;2022-07-29T00:38:05;1.80;;;1.30;;
8480;SDS011;4277;51.354;6.740;2022-07-29T00:40:31;4.95;;;1.40;;
8480;SDS011;4277;51.354;6.740;2022-07-29T00:42:57;3.88;;;1.40;;
8480;SDS011;4277;51.354;6.740;2022-07-29T00:45:22;3.53;;;1.50;;
8480;SDS011;4277;51.354;6.740;2022-07-29T00:47:48;5.15;;;1.40;;
8480;SDS011;4277;51.354;6.740;2022-07-29T00:50:14;2.33;;;1.20;;
8480;SDS011;4277;51.354;6.740;2022-07-29T00:52:40;2.70;;;1.30;;
8480;SDS011;4277;51.354;6.740;2022-07-29T00:55:08;4.22;;;1.50;;
8480;SDS011;4277;51.354;6.740;2022-07-29T00:57:36;5.28;;;1.80;;
8480;SDS011;4277;51.354;6.740;2022-07-29T01:00:05;5.03;;;1.25;;
8480;SDS011;4277;51.354;6.740;2022-07-29T01:02:33;3.78;;;1.27;;
8480;SDS011;4277;51.354;6.740;2022-07-29T01:04:59;4.47;;;1.50;;
8480;SDS011;4277;51.354;6.740;2022-07-29T01:07:25;6.35;;;1.90;;
8480;SDS011;4277;51.354;6.740;2022-07-29T01:09:51;5.03;;;1.55;;
8480;SDS011;4277;51.354;6.740;2022-07-29T01:12:19;3.55;;;1.58;;
8480;SDS011;4277;51.354;6.740;2022-07-29T01:14:53;2.65;;;1.90;;
8480;SDS011;4277;51.354;6.740;2022-07-29T01:24:55;7.00;;;1.70;;
8480;SDS011;4277;51.354;6.740;2022-07-29T01:30:35;6.03;;;2.03;;
8480;SDS011;4277;51.354;6.740;2022-07-29T01:33:06;4.55;;;1.80;;
8480;SDS011;4277;51.354;6.740;2022-07-29T01:35:39;4.18;;;2.05;;
8480;SDS011;4277;51.354;6.740;2022-07-29T01:43:51;4.28;;;1.98;;
8480;SDS011;4277;51.354;6.740;2022-07-29T01:46:25;3.83;;;1.80;;
8480;SDS011;4277;51.354;6.740;2022-07-29T01:49:06;5.68;;;1.70;;
8480;SDS011;4277;51.354;6.740;2022-07-29T01:51:42;5.70;;;1.60;;
8480;SDS011;4277;51.354;6.740;2022-07-29T01:54:13;5.70;;;1.60;;
8480;SDS011;4277;51.354;6.740;2022-07-29T01:56:40;3.85;;;1.60;;
8480;SDS011;4277;51.354;6.740;2022-07-29T01:59:08;3.85;;;1.90;;
8480;SDS011;4277;51.354;6.740;2022-07-29T02:01:35;3.95;;;1.90;;
8480;SDS011;4277;51.354;6.740;2022-07-29T02:04:02;4.72;;;1.80;;
8480;SDS011;4277;51.354;6.740;2022-07-29T02:06:29;3.80;;;1.77;;
8480;SDS011;4277;51.354;6.740;2022-07-29T02:08:56;4.20;;;1.52;;
8480;SDS011;4277;51.354;6.740;2022-07-29T02:11:24;3.08;;;1.85;;
8480;SDS011;4277;51.354;6.740;2022-07-29T02:13:50;2.97;;;1.50;;
8480;SDS011;4277;51.354;6.740;2022-07-29T02:16:18;5.10;;;1.90;;
8480;SDS011;4277;51.354;6.740;2022-07-29T02:18:46;3.30;;;1.55;;
8480;SDS011;4277;51.354;6.740;2022-07-29T02:21:13;2.35;;;1.48;;
8480;SDS011;4277;51.354;6.740;2022-07-29T02:23:43;5.05;;;1.52;;
8480;SDS011;4277;51.354;6.740;2022-07-29T02:26:10;4.22;;;1.50;;
8480;SDS011;4277;51.354;6.740;2022-07-29T02:28:36;5.07;;;1.50;;
8480;SDS011;4277;51.354;6.740;2022-07-29T02:31:04;3.40;;;1.75;;
8480;SDS011;4277;51.354;6.740;2022-07-29T02:33:31;3.63;;;1.50;;
8480;SDS011;4277;51.354;6.740;2022-07-29T02:35:58;5.80;;;1.95;;
8480;SDS011;4277;51.354;6.740;2022-07-29T02:38:24;7.40;;;1.95;;
8480;SDS011;4277;51.354;6.740;2022-07-29T02:41:11;5.10;;;2.33;;
8480;SDS011;4277;51.354;6.740;2022-07-29T02:43:38;7.75;;;2.50;;
8480;SDS011;4277;51.354;6.740;2022-07-29T02:46:05;9.00;;;2.28;;
8480;SDS011;4277;51.354;6.740;2022-07-29T02:48:41;5.18;;;2.30;;
8480;SDS011;4277;51.354;6.740;2022-07-29T02:51:19;7.97;;;2.00;;
8480;SDS011;4277;51.354;6.740;2022-07-29T02:53:49;4.63;;;1.80;;
8480;SDS011;4277;51.354;6.740;2022-07-29T02:56:16;6.63;;;1.60;;
8480;SDS011;4277;51.354;6.740;2022-07-29T02:58:47;4.15;;;1.52;;
8480;SDS011;4277;51.354;6.740;2022-07-29T03:01:16;4.45;;;1.60;;
8480;SDS011;4277;51.354;6.740;2022-07-29T03:03:45;5.50;;;1.50;;
8480;SDS011;4277;51.354;6.740;2022-07-29T03:06:12;4.75;;;1.33;;
8480;SDS011;4277;51.354;6.740;2022-07-29T03:08:39;2.75;;;1.50;;
8480;SDS011;4277;51.354;6.740;2022-07-29T03:11:06;5.50;;;1.60;;
8480;SDS011;4277;51.354;6.740;2022-07-29T03:13:33;3.20;;;1.40;;
8480;SDS011;4277;51.354;6.740;2022-07-29T03:16:00;3.90;;;1.30;;
8480;SDS011;4277;51.354;6.740;2022-07-29T03:18:26;4.70;;;1.42;;
8480;SDS011;4277;51.354;6.740;2022-07-29T03:20:53;2.72;;;1.20;;
8480;SDS011;4277;51.354;6.740;2022-07-29T03:23:19;3.22;;;1.45;;
8480;SDS011;4277;51.354;6.740;2022-07-29T03:25:47;1.92;;;1.30;;
8480;SDS011;4277;51.354;6.740;2022-07-29T03:28:13;3.15;;;1.17;;
8480;SDS011;4277;51.354;6.740;2022-07-29T03:30:39;3.75;;;1.45;;
8480;SDS011;4277;51.354;6.740;2022-07-29T03:33:05;3.60;;;1.00;;
8480;SDS011;4277;51.354;6.740;2022-07-29T03:35:31;6.35;;;1.40;;
8480;SDS011;4277;51.354;6.740;2022-07-29T03:37:57;4.03;;;1.52;;
8480;SDS011;4277;51.354;6.740;2022-07-29T03:40:33;1.90;;;1.02;;
8480;SDS011;4277;51.354;6.740;2022-07-29T03:43:01;4.00;;;1.20;;
8480;SDS011;4277;51.354;6.740;2022-07-29T03:45:28;4.63;;;1.40;;
8480;SDS011;4277;51.354;6.740;2022-07-29T03:47:56;5.15;;;1.50;;
8480;SDS011;4277;51.354;6.740;2022-07-29T03:50:23;5.32;;;1.52;;
8480;SDS011;4277;51.354;6.740;2022-07-29T03:52:50;3.03;;;1.40;;
8480;SDS011;4277;51.354;6.740;2022-07-29T03:55:16;5.50;;;1.40;;
8480;SDS011;4277;51.354;6.740;2022-07-29T03:57:42;8.40;;;1.70;;
8480;SDS011;4277;51.354;6.740;2022-07-29T04:00:10;7.57;;;2.00;;
8480;SDS011;4277;51.354;6.740;2022-07-29T04:02:36;5.57;;;1.60;;
8480;SDS011;4277;51.354;6.740;2022-07-29T04:05:04;6.45;;;1.90;;
8480;SDS011;4277;51.354;6.740;2022-07-29T04:07:30;3.58;;;1.80;;
8480;SDS011;4277;51.354;6.740;2022-07-29T04:09:56;5.28;;;2.00;;
8480;SDS011;4277;51.354;6.740;2022-07-29T04:12:22;4.65;;;2.05;;
8480;SDS011;4277;51.354;6.740;2022-07-29T04:14:48;2.78;;;1.77;;
8480;SDS011;4277;51.354;6.740;2022-07-29T04:17:15;6.63;;;1.63;;
8480;SDS011;4277;51.354;6.740;2022-07-29T04:19:40;3.58;;;1.88;;
8480;SDS011;4277;51.354;6.740;2022-07-29T04:22:06;6.45;;;2.15;;
8480;SDS011;4277;51.354;6.740;2022-07-29T04:24:32;5.90;;;1.83;;
8480;SDS011;4277;51.354;6.740;2022-07-29T04:26:58;4.25;;;1.95;;
8480;SDS011;4277;51.354;6.740;2022-07-29T04:29:24;4.50;;;2.10;;
8480;SDS011;4277;51.354;6.740;2022-07-29T04:31:50;5.78;;;1.90;;
8480;SDS011;4277;51.354;6.740;2022-07-29T04:34:16;4.70;;;1.90;;
8480;SDS011;4277;51.354;6.740;2022-07-29T04:36:42;3.03;;;1.95;;
8480;SDS011;4277;51.354;6.740;2022-07-29T04:39:08;3.90;;;2.30;;
8480;SDS011;4277;51.354;6.740;2022-07-29T04:41:35;4.67;;;1.80;;
8480;SDS011;4277;51.354;6.740;2022-07-29T04:44:01;4.85;;;1.90;;
8480;SDS011;4277;51.354;6.740;2022-07-29T04:46:30;5.18;;;2.20;;
8480;SDS011;4277;51.354;6.740;2022-07-29T04:48:56;3.90;;;2.20;;
8480;SDS011;4277;51.354;6.740;2022-07-29T04:51:21;4.13;;;2.17;;
8480;SDS011;4277;51.354;6.740;2022-07-29T04:53:47;3.50;;;2.17;;
8480;SDS011;4277;51.354;6.740;2022-07-29T04:56:13;6.80;;;3.00;;
8480;SDS011;4277;51.354;6.740;2022-07-29T04:58:39;4.67;;;2.47;;
8480;SDS011;4277;51.354;6.740;2022-07-29T05:01:05;5.80;;;2.70;;
8480;SDS011;4277;51.354;6.740;2022-07-29T05:03:31;5.80;;;2.70;;
8480;SDS011;4277;51.354;6.740;2022-07-29T05:05:57;7.13;;;3.00;;
8480;SDS011;4277;51.354;6.740;2022-07-29T05:08:23;3.75;;;2.47;;
8480;SDS011;4277;51.354;6.740;2022-07-29T05:10:49;5.67;;;2.73;;
8480;SDS011;4277;51.354;6.740;2022-07-29T05:13:15;5.80;;;2.70;;
8480;SDS011;4277;51.354;6.740;2022-07-29T05:15:41;6.97;;;3.00;;
8480;SDS011;4277;51.354;6.740;2022-07-29T05:18:07;6.13;;;2.90;;
8480;SDS011;4277;51.354;6.740;2022-07-29T05:20:33;12.18;;;4.07;;
8480;SDS011;4277;51.354;6.740;2022-07-29T05:22:59;5.37;;;2.80;;
8480;SDS011;4277;51.354;6.740;2022-07-29T05:25:26;4.70;;;2.80;;
8480;SDS011;4277;51.354;6.740;2022-07-29T05:27:52;5.35;;;2.50;;
8480;SDS011;4277;51.354;6.740;2022-07-29T05:30:19;5.60;;;3.00;;
8480;SDS011;4277;51.354;6.740;2022-07-29T05:32:45;5.77;;;2.90;;
8480;SDS011;4277;51.354;6.740;2022-07-29T05:35:11;4.97;;;2.40;;
8480;SDS011;4277;51.354;6.740;2022-07-29T05:37:37;8.40;;;2.80;;
8480;SDS011;4277;51.354;6.740;2022-07-29T05:40:03;6.87;;;2.90;;
8480;SDS011;4277;51.354;6.740;2022-07-29T05:42:30;5.20;;;2.63;;
8480;SDS011;4277;51.354;6.740;2022-07-29T05:44:56;3.37;;;2.70;;
8480;SDS011;4277;51.354;6.740;2022-07-29T05:47:22;6.00;;;3.00;;
8480;SDS011;4277;51.354;6.740;2022-07-29T05:49:48;8.30;;;2.83;;
8480;SDS011;4277;51.354;6.740;2022-07-29T05:52:15;5.80;;;3.80;;
8480;SDS011;4277;51.354;6.740;2022-07-29T05:54:41;6.30;;;3.73;;
8480;SDS011;4277;51.354;6.740;2022-07-29T05:57:07;4.27;;;3.17;;
8480;SDS011;4277;51.354;6.740;2022-07-29T05:59:36;5.20;;;2.60;;
8480;SDS011;4277;51.354;6.740;2022-07-29T06:02:03;5.57;;;3.03;;
8480;SDS011;4277;51.354;6.740;2022-07-29T06:04:30;5.73;;;2.87;;
8480;SDS011;4277;51.354;6.740;2022-07-29T06:06:56;6.13;;;2.72;;
8480;SDS011;4277;51.354;6.740;2022-07-29T06:09:22;6.07;;;3.10;;
8480;SDS011;4277;51.354;6.740;2022-07-29T06:11:48;5.57;;;2.63;;
8480;SDS011;4277;51.354;6.740;2022-07-29T06:14:14;6.78;;;2.90;;
8480;SDS011;4277;51.354;6.740;2022-07-29T06:16:40;5.82;;;2.70;;
8480;SDS011;4277;51.354;6.740;2022-07-29T06:19:06;5.65;;;2.80;;
8480;SDS011;4277;51.354;6.740;2022-07-29T06:21:32;6.18;;;2.75;;
8480;SDS011;4277;51.354;6.740;2022-07-29T06:23:58;6.03;;;2.50;;
8480;SDS011;4277;51.354;6.740;2022-07-29T06:26:24;5.15;;;2.63;;
8480;SDS011;4277;51.354;6.740;2022-07-29T06:28:50;5.80;;;2.53;;
8480;SDS011;4277;51.354;6.740;2022-07-29T06:31:16;6.28;;;2.58;;
8480;SDS011;4277;51.354;6.740;2022-07-29T06:33:42;5.65;;;2.30;;
8480;SDS011;4277;51.354;6.740;2022-07-29T06:36:08;4.80;;;2.50;;
8480;SDS011;4277;51.354;6.740;2022-07-29T06:38:34;5.47;;;2.50;;
8480;SDS011;4277;51.354;6.740;2022-07-29T06:41:01;6.53;;;2.45;;
8480;SDS011;4277;51.354;6.740;2022-07-29T06:45:56;3.55;;;2.40;;
8480;SDS011;4277;51.354;6.740;2022-07-29T06:48:22;7.53;;;2.90;;
8480;SDS011;4277;51.354;6.740;2022-07-29T06:50:48;5.88;;;2.53;;
8480;SDS011;4277;51.354;6.740;2022-07-29T06:53:14;5.45;;;2.65;;
8480;SDS011;4277;51.354;6.740;2022-07-29T06:55:40;6.07;;;2.45;;
8480;SDS011;4277;51.354;6.740;2022-07-29T06:58:07;4.10;;;2.30;;
8480;SDS011;4277;51.354;6.740;2022-07-29T07:00:34;6.88;;;2.78;;
8480;SDS011;4277;51.354;6.740;2022-07-29T07:02:59;7.68;;;2.38;;
8480;SDS011;4277;51.354;6.740;2022-07-29T07:05:25;5.20;;;2.47;;
8480;SDS011;4277;51.354;6.740;2022-07-29T07:07:51;6.57;;;2.60;;
8480;SDS011;4277;51.354;6.740;2022-07-29T07:10:17;5.82;;;2.50;;
8480;SDS011;4277;51.354;6.740;2022-07-29T07:12:43;6.40;;;2.47;;
8480;SDS011;4277;51.354;6.740;2022-07-29T07:15:09;7.13;;;2.80;;
8480;SDS011;4277;51.354;6.740;2022-07-29T07:17:35;7.70;;;2.90;;
8480;SDS011;4277;51.354;6.740;2022-07-29T07:20:02;7.28;;;2.78;;
8480;SDS011;4277;51.354;6.740;2022-07-29T07:22:29;6.70;;;3.40;;
8480;SDS011;4277;51.354;6.740;2022-07-29T07:24:55;7.82;;;2.75;;
8480;SDS011;4277;51.354;6.740;2022-07-29T07:27:21;7.05;;;2.72;;
8480;SDS011;4277;51.354;6.740;2022-07-29T07:29:47;5.97;;;2.88;;
8480;SDS011;4277;51.354;6.740;2022-07-29T07:32:13;7.70;;;2.90;;
8480;SDS011;4277;51.354;6.740;2022-07-29T07:34:41;3.17;;;2.30;;
8480;SDS011;4277;51.354;6.740;2022-07-29T07:37:07;4.68;;;2.47;;
8480;SDS011;4277;51.354;6.740;2022-07-29T07:39:33;5.53;;;2.85;;
8480;SDS011;4277;51.354;6.740;2022-07-29T07:41:59;4.43;;;2.58;;
8480;SDS011;4277;51.354;6.740;2022-07-29T07:44:25;5.40;;;2.70;;
8480;SDS011;4277;51.354;6.740;2022-07-29T07:46:51;4.68;;;3.05;;
8480;SDS011;4277;51.354;6.740;2022-07-29T07:49:17;6.13;;;2.80;;
8480;SDS011;4277;51.354;6.740;2022-07-29T07:51:43;5.55;;;3.30;;
8480;SDS011;4277;51.354;6.740;2022-07-29T07:54:10;8.33;;;3.43;;
8480;SDS011;4277;51.354;6.740;2022-07-29T07:56:36;6.22;;;3.40;;
8480;SDS011;4277;51.354;6.740;2022-07-29T07:59:02;8.48;;;3.50;;
8480;SDS011;4277;51.354;6.740;2022-07-29T08:01:28;4.70;;;3.10;;
8480;SDS011;4277;51.354;6.740;2022-07-29T08:03:54;4.53;;;3.47;;
8480;SDS011;4277;51.354;6.740;2022-07-29T08:06:19;8.82;;;3.53;;
8480;SDS011;4277;51.354;6.740;2022-07-29T08:08:45;6.40;;;3.60;;
8480;SDS011;4277;51.354;6.740;2022-07-29T08:11:11;9.23;;;3.42;;
8480;SDS011;4277;51.354;6.740;2022-07-29T08:13:38;8.55;;;3.30;;
8480;SDS011;4277;51.354;6.740;2022-07-29T08:16:06;7.83;;;3.57;;
8480;SDS011;4277;51.354;6.740;2022-07-29T08:18:40;9.70;;;3.60;;
8480;SDS011;4277;51.354;6.740;2022-07-29T08:21:06;8.75;;;3.45;;
8480;SDS011;4277;51.354;6.740;2022-07-29T08:23:32;8.90;;;3.90;;
8480;SDS011;4277;51.354;6.740;2022-07-29T08:26:05;6.85;;;3.33;;
8480;SDS011;4277;51.354;6.740;2022-07-29T08:28:35;5.72;;;3.17;;
8480;SDS011;4277;51.354;6.740;2022-07-29T08:31:01;8.10;;;3.60;;
8480;SDS011;4277;51.354;6.740;2022-07-29T08:33:27;7.57;;;3.67;;
8480;SDS011;4277;51.354;6.740;2022-07-29T08:35:53;7.13;;;3.67;;
8480;SDS011;4277;51.354;6.740;2022-07-29T08:38:19;7.93;;;3.00;;
8480;SDS011;4277;51.354;6.740;2022-07-29T08:40:45;5.60;;;3.00;;
8480;SDS011;4277;51.354;6.740;2022-07-29T08:43:11;5.68;;;3.03;;
8480;SDS011;4277;51.354;6.740;2022-07-29T08:45:49;5.20;;;3.10;;
8480;SDS011;4277;51.354;6.740;2022-07-29T08:48:16;6.50;;;3.30;;
8480;SDS011;4277;51.354;6.740;2022-07-29T08:50:43;5.72;;;3.05;;
8480;SDS011;4277;51.354;6.740;2022-07-29T08:53:13;3.95;;;3.15;;
8480;SDS011;4277;51.354;6.740;2022-07-29T08:55:43;4.95;;;2.90;;
8480;SDS011;4277;51.354;6.740;2022-07-29T08:58:09;5.35;;;2.65;;
8480;SDS011;4277;51.354;6.740;2022-07-29T09:00:37;6.13;;;3.08;;
8480;SDS011;4277;51.354;6.740;2022-07-29T09:03:05;4.85;;;3.08;;
8480;SDS011;4277;51.354;6.740;2022-07-29T09:05:31;6.82;;;3.13;;
8480;SDS011;4277;51.354;6.740;2022-07-29T09:07:58;7.68;;;3.22;;
8480;SDS011;4277;51.354;6.740;2022-07-29T09:10:24;7.00;;;3.00;;
8480;SDS011;4277;51.354;6.740;2022-07-29T09:12:50;6.22;;;3.20;;
8480;SDS011;4277;51.354;6.740;2022-07-29T09:15:17;5.03;;;3.13;;
8480;SDS011;4277;51.354;6.740;2022-07-29T09:20:16;6.68;;;3.60;;
8480;SDS011;4277;51.354;6.740;2022-07-29T09:22:42;6.22;;;3.40;;
8480;SDS011;4277;51.354;6.740;2022-07-29T09:25:11;5.40;;;3.40;;
8480;SDS011;4277;51.354;6.740;2022-07-29T09:27:37;5.63;;;2.90;;
8480;SDS011;4277;51.354;6.740;2022-07-29T09:30:06;7.13;;;3.38;;
8480;SDS011;4277;51.354;6.740;2022-07-29T09:32:53;4.80;;;3.42;;
8480;SDS011;4277;51.354;6.740;2022-07-29T09:35:20;7.63;;;3.60;;
8480;SDS011;4277;51.354;6.740;2022-07-29T09:37:46;6.68;;;3.53;;
8480;SDS011;4277;51.354;6.740;2022-07-29T09:42:42;7.45;;;3.65;;
8480;SDS011;4277;51.354;6.740;2022-07-29T09:45:08;8.35;;;4.30;;
8480;SDS011;4277;51.354;6.740;2022-07-29T09:47:40;9.88;;;4.00;;
8480;SDS011;4277;51.354;6.740;2022-07-29T09:50:06;7.05;;;3.45;;
8480;SDS011;4277;51.354;6.740;2022-07-29T09:52:32;8.45;;;3.90;;
8480;SDS011;4277;51.354;6.740;2022-07-29T09:55:09;5.25;;;3.70;;
8480;SDS011;4277;51.354;6.740;2022-07-29T09:57:35;7.93;;;3.75;;
8480;SDS011;4277;51.354;6.740;2022-07-29T10:00:08;9.35;;;4.18;;
8480;SDS011;4277;51.354;6.740;2022-07-29T10:02:35;8.43;;;4.25;;
8480;SDS011;4277;51.354;6.740;2022-07-29T10:05:03;10.77;;;4.13;;
8480;SDS011;4277;51.354;6.740;2022-07-29T10:07:42;9.35;;;4.20;;
8480;SDS011;4277;51.354;6.740;2022-07-29T10:10:09;7.28;;;4.22;;
8480;SDS011;4277;51.354;6.740;2022-07-29T10:12:35;8.45;;;4.40;;
8480;SDS011;4277;51.354;6.740;2022-07-29T10:15:13;6.45;;;3.60;;
8480;SDS011;4277;51.354;6.740;2022-07-29T10:17:40;8.95;;;4.00;;
8480;SDS011;4277;51.354;6.740;2022-07-29T10:20:07;9.75;;;4.18;;
8480;SDS011;4277;51.354;6.740;2022-07-29T10:22:33;10.50;;;4.57;;
8480;SDS011;4277;51.354;6.740;2022-07-29T10:24:59;6.32;;;3.58;;
8480;SDS011;4277;51.354;6.740;2022-07-29T10:27:24;6.65;;;3.60;;
8480;SDS011;4277;51.354;6.740;2022-07-29T10:29:50;11.02;;;3.78;;
8480;SDS011;4277;51.354;6.740;2022-07-29T10:37:28;7.88;;;3.35;;
8480;SDS011;4277;51.354;6.740;2022-07-29T10:40:22;6.43;;;2.78;;
8480;SDS011;4277;51.354;6.740;2022-07-29T10:43:23;8.10;;;3.35;;
8480;SDS011;4277;51.354;6.740;2022-07-29T10:45:55;7.03;;;3.10;;
8480;SDS011;4277;51.354;6.740;2022-07-29T10:48:22;5.82;;;2.88;;
8480;SDS011;4277;51.354;6.740;2022-07-29T10:51:07;6.65;;;3.20;;
8480;SDS011;4277;51.354;6.740;2022-07-29T10:53:47;7.88;;;3.08;;
8480;SDS011;4277;51.354;6.740;2022-07-29T10:56:32;9.50;;;2.88;;
8480;SDS011;4277;51.354;6.740;2022-07-29T11:01:45;6.15;;;2.80;;
8480;SDS011;4277;51.354;6.740;2022-07-29T11:04:11;7.25;;;3.00;;
8480;SDS011;4277;51.354;6.740;2022-07-29T11:09:27;3.90;;;2.60;;
8480;SDS011;4277;51.354;6.740;2022-07-29T11:11:55;4.90;;;2.78;;
8480;SDS011;4277;51.354;6.740;2022-07-29T11:17:16;6.13;;;2.65;;
8480;SDS011;4277;51.354;6.740;2022-07-29T11:19:42;5.78;;;2.97;;
8480;SDS011;4277;51.354;6.740;2022-07-29T11:22:09;8.75;;;2.88;;
8480;SDS011;4277;51.354;6.740;2022-07-29T11:24:36;6.18;;;2.80;;
8480;SDS011;4277;51.354;6.740;2022-07-29T11:29:52;6.45;;;3.20;;
8480;SDS011;4277;51.354;6.740;2022-07-29T11:32:19;7.45;;;2.70;;
8480;SDS011;4277;51.354;6.740;2022-07-29T11:34:49;9.18;;;3.80;;
8480;SDS011;4277;51.354;6.740;2022-07-29T11:37:36;9.75;;;3.85;;
8480;SDS011;4277;51.354;6.740;2022-07-29T11:45:12;10.48;;;3.53;;
8480;SDS011;4277;51.354;6.740;2022-07-29T11:48:01;7.32;;;3.92;;
8480;SDS011;4277;51.354;6.740;2022-07-29T11:50:30;6.97;;;2.50;;
8480;SDS011;4277;51.354;6.740;2022-07-29T11:52:57;9.60;;;3.72;;
8480;SDS011;4277;51.354;6.740;2022-07-29T11:55:23;8.20;;;3.67;;
8480;SDS011;4277;51.354;6.740;2022-07-29T11:57:56;5.72;;;3.35;;
8480;SDS011;4277;51.354;6.740;2022-07-29T12:03:07;12.35;;;3.35;;
8480;SDS011;4277;51.354;6.740;2022-07-29T12:08:07;6.15;;;3.03;;
8480;SDS011;4277;51.354;6.740;2022-07-29T12:10:38;7.15;;;3.25;;
8480;SDS011;4277;51.354;6.740;2022-07-29T12:13:05;9.25;;;3.25;;
8480;SDS011;4277;51.354;6.740;2022-07-29T12:15:31;6.28;;;2.90;;
8480;SDS011;4277;51.354;6.740;2022-07-29T12:17:57;6.53;;;2.65;;
8480;SDS011;4277;51.354;6.740;2022-07-29T12:20:23;9.27;;;3.00;;
8480;SDS011;4277;51.354;6.740;2022-07-29T12:22:51;8.23;;;3.97;;
8480;SDS011;4277;51.354;6.740;2022-07-29T12:25:18;5.28;;;3.42;;
8480;SDS011;4277;51.354;6.740;2022-07-29T12:27:45;6.72;;;3.45;;
8480;SDS011;4277;51.354;6.740;2022-07-29T12:30:12;7.10;;;3.28;;
8480;SDS011;4277;51.354;6.740;2022-07-29T12:32:40;8.73;;;2.95;;
8480;SDS011;4277;51.354;6.740;2022-07-29T12:35:10;10.82;;;3.20;;
8480;SDS011;4277;51.354;6.740;2022-07-29T12:37:37;8.43;;;3.33;;
8480;SDS011;4277;51.354;6.740;2022-07-29T12:40:05;5.38;;;3.00;;
8480;SDS011;4277;51.354;6.740;2022-07-29T12:42:32;8.52;;;3.03;;
8480;SDS011;4277;51.354;6.740;2022-07-29T12:44:58;6.28;;;3.30;;
8480;SDS011;4277;51.354;6.740;2022-07-29T12:47:23;5.82;;;2.80;;
8480;SDS011;4277;51.354;6.740;2022-07-29T12:49:49;8.43;;;3.08;;
8480;SDS011;4277;51.354;6.740;2022-07-29T12:52:31;6.15;;;2.78;;
8480;SDS011;4277;51.354;6.740;2022-07-29T12:54:58;6.88;;;2.67;;
8480;SDS011;4277;51.354;6.740;2022-07-29T12:57:24;6.75;;;3.00;;
8480;SDS011;4277;51.354;6.740;2022-07-29T13:00:04;10.57;;;2.70;;
8480;SDS011;4277;51.354;6.740;2022-07-29T13:02:33;5.82;;;3.33;;
8480;SDS011;4277;51.354;6.740;2022-07-29T13:04:59;7.15;;;2.97;;
8480;SDS011;4277;51.354;6.740;2022-07-29T13:07:27;6.38;;;2.70;;
8480;SDS011;4277;51.354;6.740;2022-07-29T13:09:54;6.00;;;3.20;;
8480;SDS011;4277;51.354;6.740;2022-07-29T13:12:38;6.88;;;2.88;;
8480;SDS011;4277;51.354;6.740;2022-07-29T13:15:13;6.80;;;3.20;;
8480;SDS011;4277;51.354;6.740;2022-07-29T13:17:43;4.47;;;2.63;;
8480;SDS011;4277;51.354;6.740;2022-07-29T13:20:10;6.32;;;2.75;;
8480;SDS011;4277;51.354;6.740;2022-07-29T13:22:40;5.90;;;2.45;;
8480;SDS011;4277;51.354;6.740;2022-07-29T13:25:07;5.88;;;2.65;;
8480;SDS011;4277;51.354;6.740;2022-07-29T13:27:33;7.25;;;2.83;;
8480;SDS011;4277;51.354;6.740;2022-07-29T13:30:02;7.50;;;2.78;;
8480;SDS011;4277;51.354;6.740;2022-07-29T13:32:30;5.60;;;2.70;;
8480;SDS011;4277;51.354;6.740;2022-07-29T13:34:56;6.10;;;2.70;;
8480;SDS011;4277;51.354;6.740;2022-07-29T13:37:22;5.03;;;2.65;;
8480;SDS011;4277;51.354;6.740;2022-07-29T13:39:48;5.85;;;2.60;;
8480;SDS011;4277;51.354;6.740;2022-07-29T13:42:13;5.65;;;2.83;;
8480;SDS011;4277;51.354;6.740;2022-07-29T13:44:39;6.95;;;2.80;;
8480;SDS011;4277;51.354;6.740;2022-07-29T13:47:06;4.88;;;3.10;;
8480;SDS011;4277;51.354;6.740;2022-07-29T13:49:32;6.35;;;2.50;;
8480;SDS011;4277;51.354;6.740;2022-07-29T13:51:58;11.15;;;3.15;;
8480;SDS011;4277;51.354;6.740;2022-07-29T13:54:23;5.93;;;3.00;;
8480;SDS011;4277;51.354;6.740;2022-07-29T13:56:50;7.28;;;2.80;;
8480;SDS011;4277;51.354;6.740;2022-07-29T13:59:16;4.97;;;2.90;;
8480;SDS011;4277;51.354;6.740;2022-07-29T14:01:41;7.47;;;2.80;;
8480;SDS011;4277;51.354;6.740;2022-07-29T14:04:08;5.13;;;2.95;;
8480;SDS011;4277;51.354;6.740;2022-07-29T14:06:34;9.35;;;3.08;;
8480;SDS011;4277;51.354;6.740;2022-07-29T14:09:00;7.60;;;2.80;;
8480;SDS011;4277;51.354;6.740;2022-07-29T14:11:25;8.98;;;2.95;;
8480;SDS011;4277;51.354;6.740;2022-07-29T14:13:51;7.63;;;3.30;;
8480;SDS011;4277;51.354;6.740;2022-07-29T14:16:17;6.40;;;3.03;;
8480;SDS011;4277;51.354;6.740;2022-07-29T14:18:42;7.15;;;3.00;;
8480;SDS011;4277;51.354;6.740;2022-07-29T14:21:08;6.07;;;3.20;;
8480;SDS011;4277;51.354;6.740;2022-07-29T14:23:34;8.20;;;2.65;;
8480;SDS011;4277;51.354;6.740;2022-07-29T14:25:59;8.70;;;2.80;;
8480;SDS011;4277;51.354;6.740;2022-07-29T14:28:25;7.35;;;2.67;;
8480;SDS011;4277;51.354;6.740;2022-07-29T14:30:51;4.65;;;2.33;;
8480;SDS011;4277;51.354;6.740;2022-07-29T14:33:17;5.95;;;2.55;;
8480;SDS011;4277;51.354;6.740;2022-07-29T14:35:42;3.58;;;2.60;;
8480;SDS011;4277;51.354;6.740;2022-07-29T14:38:09;7.93;;;3.10;;
8480;SDS011;4277;51.354;6.740;2022-07-29T14:40:35;5.78;;;2.67;;
8480;SDS011;4277;51.354;6.740;2022-07-29T14:43:01;6.97;;;3.25;;
8480;SDS011;4277;51.354;6.740;2022-07-29T14:45:27;9.45;;;3.10;;
8480;SDS011;4277;51.354;6.740;2022-07-29T14:47:53;7.82;;;3.10;;
8480;SDS011;4277;51.354;6.740;2022-07-29T14:50:19;6.50;;;3.28;;
8480;SDS011;4277;51.354;6.740;2022-07-29T14:52:44;6.15;;;3.50;;
8480;SDS011;4277;51.354;6.740;2022-07-29T14:55:10;6.07;;;3.08;;
8480;SDS011;4277;51.354;6.740;2022-07-29T14:57:36;5.72;;;2.78;;
8480;SDS011;4277;51.354;6.740;2022-07-29T15:00:03;8.30;;;2.95;;
8480;SDS011;4277;51.354;6.740;2022-07-29T15:02:30;6.13;;;2.47;;
8480;SDS011;4277;51.354;6.740;2022-07-29T15:04:56;5.68;;;2.70;;
8480;SDS011;4277;51.354;6.740;2022-07-29T15:07:21;6.82;;;2.50;;
8480;SDS011;4277;51.354;6.740;2022-07-29T15:09:47;5.63;;;2.60;;
8480;SDS011;4277;51.354;6.740;2022-07-29T15:12:13;7.20;;;2.50;;
8480;SDS011;4277;51.354;6.740;2022-07-29T15:14:38;4.50;;;2.70;;
8480;SDS011;4277;51.354;6.740;2022-07-29T15:17:04;5.80;;;2.50;;
8480;SDS011;4277;51.354;6.740;2022-07-29T15:19:30;5.03;;;2.17;;
8480;SDS011;4277;51.354;6.740;2022-07-29T15:21:55;5.65;;;2.30;;
8480;SDS011;4277;51.354;6.740;2022-07-29T15:24:21;3.85;;;2.28;;
8480;SDS011;4277;51.354;6.740;2022-07-29T15:26:47;5.32;;;2.20;;
8480;SDS011;4277;51.354;6.740;2022-07-29T15:29:13;2.22;;;1.85;;
8480;SDS011;4277;51.354;6.740;2022-07-29T15:31:39;5.25;;;1.98;;
8480;SDS011;4277;51.354;6.740;2022-07-29T15:34:04;7.60;;;2.00;;
8480;SDS011;4277;51.354;6.740;2022-07-29T15:36:30;4.55;;;1.85;;
8480;SDS011;4277;51.354;6.740;2022-07-29T15:38:55;5.65;;;1.88;;
8480;SDS011;4277;51.354;6.740;2022-07-29T15:41:21;5.70;;;1.90;;
8480;SDS011;4277;51.354;6.740;2022-07-29T15:43:47;4.53;;;1.88;;
8480;SDS011;4277;51.354;6.740;2022-07-29T15:46:14;3.22;;;1.70;;
8480;SDS011;4277;51.354;6.740;2022-07-29T15:49:00;5.13;;;1.90;;
8480;SDS011;4277;51.354;6.740;2022-07-29T15:51:27;5.00;;;1.90;;
8480;SDS011;4277;51.354;6.740;2022-07-29T15:53:52;3.42;;;1.90;;
8480;SDS011;4277;51.354;6.740;2022-07-29T15:56:18;5.95;;;2.08;;
8480;SDS011;4277;51.354;6.740;2022-07-29T15:58:44;3.95;;;1.90;;
8480;SDS011;4277;51.354;6.740;2022-07-29T16:01:09;6.65;;;2.30;;
8480;SDS011;4277;51.354;6.740;2022-07-29T16:03:35;3.13;;;2.17;;
8480;SDS011;4277;51.354;6.740;2022-07-29T16:06:01;4.57;;;1.98;;
8480;SDS011;4277;51.354;6.740;2022-07-29T16:08:26;4.35;;;2.20;;